createdAt,value
2022-11-07T00:00:01.861Z,7.13
2022-11-07T00:02:28.431Z,16.42
2022-11-07T00:04:54.970Z,7.95
2022-11-07T00:07:21.466Z,10.65
2022-11-07T00:09:47.991Z,7.80
2022-11-07T00:12:14.501Z,11.48
2022-11-07T00:14:40.963Z,9.13
2022-11-07T00:17:07.932Z,11.40
2022-11-07T00:19:34.411Z,7.43
2022-11-07T00:22:00.973Z,10.73
2022-11-07T00:24:27.494Z,7.72
2022-11-07T00:26:54.024Z,7.55
2022-11-07T00:29:20.781Z,10.55
2022-11-07T00:31:47.963Z,11.82
2022-11-07T00:34:14.574Z,11.93
2022-11-07T00:36:41.114Z,8.18
2022-11-07T00:39:07.641Z,9.95
2022-11-07T00:41:34.151Z,13.95
2022-11-07T00:44:00.646Z,9.88
2022-11-07T00:46:27.140Z,6.03
2022-11-07T00:48:53.809Z,6.43
2022-11-07T00:51:21.960Z,9.75
2022-11-07T00:53:48.929Z,6.47
2022-11-07T00:56:17.907Z,10.65
2022-11-07T00:58:44.590Z,10.18
2022-11-07T01:01:20.138Z,9.88
2022-11-07T01:04:05.925Z,9.48
2022-11-07T01:06:34.341Z,8.55
2022-11-07T01:09:00.924Z,7.45
2022-11-07T01:11:28.684Z,5.22
2022-11-07T01:13:56.058Z,9.55
2022-11-07T01:16:22.805Z,15.07
2022-11-07T01:18:49.481Z,11.55
2022-11-07T01:21:16.763Z,8.32
2022-11-07T01:23:43.358Z,6.60
2022-11-07T01:26:10.781Z,10.32
2022-11-07T01:28:37.230Z,6.82
2022-11-07T01:31:04.633Z,12.45
2022-11-07T01:33:31.157Z,6.03
2022-11-07T01:36:05.856Z,6.78
2022-11-07T01:38:32.746Z,8.38
2022-11-07T01:41:18.127Z,10.10
2022-11-07T01:43:49.892Z,5.00
2022-11-07T01:46:16.589Z,9.90
2022-11-07T01:48:46.719Z,5.78
2022-11-07T01:51:13.733Z,6.95
2022-11-07T01:53:41.082Z,9.13
2022-11-07T01:56:10.019Z,10.23
2022-11-07T01:58:36.514Z,9.90
2022-11-07T02:01:03.492Z,7.55
2022-11-07T02:03:30.061Z,8.98
2022-11-07T02:05:58.992Z,9.00
2022-11-07T02:08:26.258Z,6.80
2022-11-07T02:10:53.044Z,6.65
2022-11-07T02:13:27.031Z,9.50
2022-11-07T02:15:53.885Z,9.05
2022-11-07T02:18:21.303Z,5.38
2022-11-07T02:20:47.806Z,6.75
2022-11-07T02:23:20.372Z,5.38
2022-11-07T02:25:47.150Z,10.80
2022-11-07T02:28:13.969Z,5.90
2022-11-07T02:30:40.526Z,8.32
2022-11-07T02:33:17.573Z,7.97
2022-11-07T02:35:45.510Z,9.73
2022-11-07T02:38:12.006Z,9.43
2022-11-07T02:40:39.157Z,10.82
2022-11-07T02:43:06.581Z,7.93
2022-11-07T02:45:34.497Z,7.63
2022-11-07T02:48:01.138Z,5.75
2022-11-07T02:50:27.860Z,7.47
2022-11-07T02:52:54.354Z,6.93
2022-11-07T02:55:20.858Z,8.32
2022-11-07T02:57:47.350Z,7.53
2022-11-07T03:00:14.997Z,7.60
2022-11-07T03:02:47.264Z,8.73
2022-11-07T03:05:14.837Z,5.35
2022-11-07T03:07:42.015Z,8.57
2022-11-07T03:10:09.160Z,6.63
2022-11-07T03:12:35.655Z,11.15
2022-11-07T03:15:02.261Z,9.27
2022-11-07T03:17:28.828Z,6.22
2022-11-07T03:19:55.382Z,9.73
2022-11-07T03:22:21.891Z,14.18
2022-11-07T03:24:48.382Z,6.95
2022-11-07T03:27:15.577Z,7.38
2022-11-07T03:29:42.063Z,6.18
2022-11-07T03:32:08.561Z,8.65
2022-11-07T03:34:35.074Z,6.68
2022-11-07T03:37:01.609Z,9.90
2022-11-07T03:39:28.104Z,11.88
2022-11-07T03:41:54.587Z,5.13
2022-11-07T03:44:21.204Z,6.70
2022-11-07T03:46:47.717Z,7.20
2022-11-07T03:49:14.178Z,7.72
2022-11-07T03:51:40.659Z,9.10
2022-11-07T03:54:07.248Z,8.88
2022-11-07T03:56:33.720Z,5.93
2022-11-07T03:59:00.222Z,4.57
2022-11-07T04:01:26.855Z,6.65
2022-11-07T04:03:56.248Z,7.10
2022-11-07T04:06:23.545Z,6.70
2022-11-07T04:08:50.122Z,6.53
2022-11-07T04:11:35.224Z,8.45
2022-11-07T04:14:20.472Z,6.60
2022-11-07T04:17:05.456Z,6.57
2022-11-07T04:19:31.932Z,7.95
2022-11-07T04:21:58.423Z,8.10
2022-11-07T04:24:24.917Z,5.95
2022-11-07T04:27:23.794Z,5.25
2022-11-07T04:29:50.292Z,4.70
2022-11-07T04:32:16.814Z,6.28
2022-11-07T04:34:43.271Z,6.57
2022-11-07T04:37:09.743Z,8.77
2022-11-07T04:39:36.231Z,3.28
2022-11-07T04:42:02.680Z,7.28
2022-11-07T04:44:29.250Z,7.57
2022-11-07T04:46:55.778Z,6.45
2022-11-07T04:49:22.262Z,3.28
2022-11-07T04:51:49.191Z,7.75
2022-11-07T04:54:15.970Z,6.35
2022-11-07T04:56:42.460Z,6.63
2022-11-07T04:59:09.001Z,6.38
2022-11-07T05:01:35.632Z,8.57
2022-11-07T05:04:02.182Z,7.20
2022-11-07T05:06:28.839Z,8.48
2022-11-07T05:08:55.308Z,8.88
2022-11-07T05:11:21.802Z,7.15
2022-11-07T05:13:48.283Z,10.57
2022-11-07T05:16:17.180Z,8.85
2022-11-07T05:18:44.026Z,9.80
2022-11-07T05:21:10.522Z,10.70
2022-11-07T05:23:37.073Z,8.30
2022-11-07T05:26:03.656Z,5.35
2022-11-07T05:28:38.369Z,6.25
2022-11-07T05:31:06.460Z,5.30
2022-11-07T05:33:32.982Z,9.38
2022-11-07T05:36:08.642Z,9.82
2022-11-07T05:38:35.093Z,9.73
2022-11-07T05:41:04.793Z,9.13
2022-11-07T05:43:31.292Z,5.68
2022-11-07T05:46:01.411Z,8.73
2022-11-07T05:48:28.109Z,8.18
2022-11-07T05:50:54.663Z,3.97
2022-11-07T05:53:21.581Z,7.40
2022-11-07T05:55:48.175Z,7.05
2022-11-07T05:58:14.698Z,6.78
2022-11-07T06:00:41.227Z,8.77
2022-11-07T06:03:08.136Z,8.32
2022-11-07T06:05:34.793Z,6.55
2022-11-07T06:08:01.269Z,5.57
2022-11-07T06:10:27.794Z,6.05
2022-11-07T06:13:01.329Z,10.30
2022-11-07T06:15:28.979Z,8.30
2022-11-07T06:17:55.909Z,8.00
2022-11-07T06:20:22.434Z,11.60
2022-11-07T06:22:48.894Z,6.72
2022-11-07T06:25:15.385Z,4.35
2022-11-07T06:27:41.937Z,6.55
2022-11-07T06:30:08.679Z,5.13
2022-11-07T06:32:35.307Z,3.85
2022-11-07T06:35:01.759Z,4.65
2022-11-07T06:37:28.517Z,9.50
2022-11-07T06:39:54.986Z,4.68
2022-11-07T06:42:21.478Z,7.53
2022-11-07T06:44:47.965Z,5.85
2022-11-07T06:47:15.803Z,6.80
2022-11-07T06:49:42.408Z,7.50
2022-11-07T06:52:08.953Z,9.50
2022-11-07T06:54:35.509Z,11.68
2022-11-07T06:57:02.010Z,6.10
2022-11-07T06:59:28.534Z,8.38
2022-11-07T07:01:55.057Z,6.00
2022-11-07T07:04:21.534Z,5.13
2022-11-07T07:06:48.009Z,6.97
2022-11-07T07:09:14.480Z,11.10
2022-11-07T07:11:42.821Z,6.25
2022-11-07T07:14:11.716Z,7.63
2022-11-07T07:16:38.482Z,8.05
2022-11-07T07:19:05.057Z,6.85
2022-11-07T07:21:31.515Z,6.72
2022-11-07T07:23:58.005Z,5.35
2022-11-07T07:26:24.455Z,7.75
2022-11-07T07:28:50.911Z,4.18
2022-11-07T07:31:17.348Z,6.88
2022-11-07T07:33:47.346Z,8.60
2022-11-07T07:36:19.367Z,10.23
2022-11-07T07:38:47.715Z,5.63
2022-11-07T07:41:14.201Z,8.13
2022-11-07T07:43:40.858Z,8.15
2022-11-07T07:46:08.373Z,7.28
2022-11-07T07:48:35.315Z,9.85
2022-11-07T07:51:01.794Z,6.53
2022-11-07T07:53:28.294Z,7.10
2022-11-07T07:55:59.114Z,13.48
2022-11-07T07:58:26.320Z,6.05
2022-11-07T08:00:53.328Z,8.88
2022-11-07T08:03:19.893Z,10.23
2022-11-07T08:05:52.394Z,9.98
2022-11-07T08:08:18.831Z,6.43
2022-11-07T08:10:46.050Z,4.72
2022-11-07T08:13:12.622Z,5.95
2022-11-07T08:15:39.133Z,8.48
2022-11-07T08:18:05.619Z,6.63
2022-11-07T08:20:32.138Z,7.45
2022-11-07T08:23:02.469Z,9.13
2022-11-07T08:25:29.078Z,3.70
2022-11-07T08:27:55.611Z,8.90
2022-11-07T08:30:22.170Z,9.20
2022-11-07T08:32:48.668Z,13.35
2022-11-07T08:35:15.219Z,5.13
2022-11-07T08:37:41.682Z,6.60
2022-11-07T08:40:08.517Z,6.07
2022-11-07T08:42:34.955Z,9.23
2022-11-07T08:45:01.437Z,11.10
2022-11-07T08:47:28.641Z,7.10
2022-11-07T08:49:55.109Z,4.70
2022-11-07T08:52:21.612Z,9.57
2022-11-07T08:54:48.113Z,14.30
2022-11-07T08:57:14.641Z,6.97
2022-11-07T08:59:41.134Z,6.97
2022-11-07T09:04:56.241Z,9.25
2022-11-07T09:07:22.701Z,13.30
2022-11-07T09:09:49.178Z,12.35
2022-11-07T09:12:15.817Z,7.28
2022-11-07T09:14:42.266Z,8.93
2022-11-07T09:17:08.815Z,8.77
2022-11-07T09:19:35.259Z,8.20
2022-11-07T09:22:01.822Z,9.02
2022-11-07T09:24:28.334Z,10.93
2022-11-07T09:26:54.860Z,9.23
2022-11-07T09:29:21.434Z,10.18
2022-11-07T09:31:48.027Z,12.85
2022-11-07T09:34:14.550Z,11.90
2022-11-07T09:36:41.076Z,12.90
2022-11-07T09:39:07.560Z,8.27
2022-11-07T09:41:50.178Z,9.55
2022-11-07T09:44:25.444Z,14.80
2022-11-07T09:46:59.347Z,12.93
2022-11-07T09:49:29.837Z,14.85
2022-11-07T09:51:59.645Z,7.93
2022-11-07T09:54:28.544Z,8.23
2022-11-07T09:56:56.778Z,11.43
2022-11-07T09:59:25.432Z,9.77
2022-11-07T10:01:52.087Z,8.45
2022-11-07T10:04:25.341Z,11.45
2022-11-07T10:06:55.670Z,16.05
2022-11-07T10:09:28.780Z,13.27
2022-11-07T10:12:10.588Z,15.98
2022-11-07T10:15:09.926Z,10.73
2022-11-07T10:17:42.234Z,17.35
2022-11-07T10:20:08.917Z,13.13
2022-11-07T10:22:53.414Z,13.60
2022-11-07T10:25:26.746Z,10.90
2022-11-07T10:28:05.553Z,20.17
2022-11-07T10:30:32.051Z,13.57
2022-11-07T10:33:04.046Z,11.82
2022-11-07T10:35:31.880Z,8.52
2022-11-07T10:37:59.440Z,7.90
2022-11-07T10:40:28.729Z,10.77
2022-11-07T10:42:56.505Z,9.30
2022-11-07T10:45:23.752Z,5.28
2022-11-07T10:48:04.186Z,10.23
2022-11-07T10:50:30.902Z,8.57
2022-11-07T10:52:57.344Z,13.43
2022-11-07T10:55:24.573Z,8.95
2022-11-07T10:57:57.652Z,14.02
2022-11-07T11:00:25.737Z,5.60
2022-11-07T11:02:53.058Z,6.45
2022-11-07T11:05:21.223Z,14.68
2022-11-07T11:07:47.782Z,11.25
2022-11-07T11:10:19.004Z,12.77
2022-11-07T11:12:46.309Z,13.30
2022-11-07T11:15:14.740Z,8.85
2022-11-07T11:17:41.497Z,6.22
2022-11-07T11:20:28.330Z,8.20
2022-11-07T11:22:54.904Z,9.98
2022-11-07T11:25:22.030Z,5.30
2022-11-07T11:27:51.506Z,8.50
2022-11-07T11:30:19.662Z,7.15
2022-11-07T11:32:50.766Z,6.95
2022-11-07T11:35:41.987Z,6.43
2022-11-07T11:38:08.853Z,7.60
2022-11-07T11:40:38.116Z,9.65
2022-11-07T11:43:19.478Z,10.60
2022-11-07T11:45:54.095Z,9.30
2022-11-07T11:48:25.590Z,6.70
2022-11-07T11:50:54.620Z,13.38
2022-11-07T11:53:22.086Z,12.95
2022-11-07T11:56:02.026Z,10.75
2022-11-07T11:58:34.592Z,13.18
2022-11-07T12:01:08.174Z,11.75
2022-11-07T12:03:39.945Z,11.13
2022-11-07T12:06:06.534Z,19.90
2022-11-07T12:08:49.453Z,13.10
2022-11-07T12:11:26.419Z,14.75
2022-11-07T12:13:58.528Z,13.70
2022-11-07T12:16:31.036Z,8.25
2022-11-07T12:19:04.291Z,8.18
2022-11-07T12:21:31.839Z,17.58
2022-11-07T12:24:17.061Z,7.53
2022-11-07T12:26:47.069Z,8.00
2022-11-07T12:29:32.038Z,15.10
2022-11-07T12:32:18.719Z,11.57
2022-11-07T12:34:51.512Z,16.40
2022-11-07T12:37:36.724Z,12.18
2022-11-07T12:40:17.571Z,12.48
2022-11-07T12:43:01.182Z,10.27
2022-11-07T12:45:27.665Z,16.70
2022-11-07T12:48:00.111Z,12.48
2022-11-07T12:50:30.250Z,15.82
2022-11-07T12:53:10.357Z,14.82
2022-11-07T12:55:42.169Z,16.23
2022-11-07T12:58:18.108Z,13.73
2022-11-07T13:00:45.078Z,12.40
2022-11-07T13:03:18.388Z,13.68
2022-11-07T13:06:03.612Z,11.05
2022-11-07T13:08:35.222Z,12.48
2022-11-07T13:11:20.142Z,13.00
2022-11-07T13:14:08.505Z,17.20
2022-11-07T13:16:36.794Z,8.65
2022-11-07T13:19:10.312Z,13.52
2022-11-07T13:21:40.922Z,19.75
2022-11-07T13:24:07.684Z,11.88
2022-11-07T13:26:46.869Z,14.20
2022-11-07T13:29:24.647Z,16.92
2022-11-07T13:32:10.899Z,15.30
2022-11-07T13:34:57.940Z,12.68
2022-11-07T13:37:36.244Z,12.32
2022-11-07T13:40:05.826Z,9.85
2022-11-07T13:42:33.710Z,9.68
2022-11-07T13:45:08.622Z,11.32
2022-11-07T13:47:41.307Z,18.45
2022-11-07T13:50:13.689Z,11.75
2022-11-07T13:52:48.454Z,12.05
2022-11-07T13:55:20.396Z,17.35
2022-11-07T13:57:56.330Z,17.23
2022-11-07T14:00:23.044Z,11.07
2022-11-07T14:02:59.211Z,11.52
2022-11-07T14:05:34.751Z,14.25
2022-11-07T14:08:02.942Z,9.98
2022-11-07T14:10:29.495Z,11.32
2022-11-07T14:13:03.175Z,11.88
2022-11-07T14:15:29.878Z,17.40
2022-11-07T14:17:56.545Z,13.30
2022-11-07T14:20:23.021Z,15.13
2022-11-07T14:22:49.462Z,14.65
2022-11-07T14:25:22.104Z,12.70
2022-11-07T14:27:48.665Z,15.95
2022-11-07T14:30:16.267Z,11.50
2022-11-07T14:32:53.917Z,12.75
2022-11-07T14:35:30.757Z,12.25
2022-11-07T14:37:58.395Z,9.80
2022-11-07T14:40:25.023Z,12.43
2022-11-07T14:42:52.167Z,10.07
2022-11-07T14:45:39.193Z,17.02
2022-11-07T14:48:07.575Z,12.07
2022-11-07T14:50:34.110Z,11.73
2022-11-07T14:53:08.986Z,10.68
2022-11-07T14:55:43.955Z,15.25
2022-11-07T14:58:11.279Z,10.95
2022-11-07T15:00:37.850Z,19.33
2022-11-07T15:03:04.660Z,12.02
2022-11-07T15:05:42.442Z,9.40
2022-11-07T15:08:24.037Z,10.00
2022-11-07T15:10:59.402Z,10.57
2022-11-07T15:13:26.762Z,10.25
2022-11-07T15:16:00.999Z,12.63
2022-11-07T15:18:27.889Z,11.23
2022-11-07T15:20:59.339Z,13.82
2022-11-07T15:23:30.102Z,20.85
2022-11-07T15:26:00.924Z,24.35
2022-11-07T15:28:43.241Z,16.73
2022-11-07T15:31:21.770Z,12.95
2022-11-07T15:33:48.478Z,18.25
2022-11-07T15:36:15.177Z,21.92
2022-11-07T15:38:41.796Z,19.33
2022-11-07T15:41:08.294Z,15.73
2022-11-07T15:43:34.848Z,17.10
2022-11-07T15:46:02.113Z,18.77
2022-11-07T15:48:31.256Z,14.48
2022-11-07T15:50:57.809Z,22.20
2022-11-07T15:53:25.338Z,12.32
2022-11-07T15:55:53.237Z,15.70
2022-11-07T15:58:21.721Z,14.45
2022-11-07T16:00:48.215Z,15.23
2022-11-07T16:03:15.993Z,14.63
2022-11-07T16:05:43.201Z,8.73
2022-11-07T16:08:14.450Z,10.98
2022-11-07T16:10:42.754Z,10.68
2022-11-07T16:13:09.343Z,15.40
2022-11-07T16:15:35.922Z,8.75
2022-11-07T16:18:02.469Z,14.90
2022-11-07T16:20:33.522Z,11.07
2022-11-07T16:23:01.588Z,13.55
2022-11-07T16:25:30.385Z,13.27
2022-11-07T16:28:03.360Z,12.30
2022-11-07T16:30:29.940Z,12.67
2022-11-07T16:32:56.484Z,13.70
2022-11-07T16:35:23.158Z,17.60
2022-11-07T16:37:49.613Z,11.63
2022-11-07T16:40:18.215Z,12.15
2022-11-07T16:42:45.076Z,10.07
2022-11-07T16:45:22.420Z,12.98
2022-11-07T16:47:48.878Z,16.95
2022-11-07T16:50:16.274Z,15.50
2022-11-07T16:52:42.891Z,9.95
2022-11-07T16:55:16.720Z,13.48
2022-11-07T16:57:43.383Z,11.27
2022-11-07T17:00:16.461Z,10.85
2022-11-07T17:02:43.093Z,6.70
2022-11-07T17:05:09.722Z,9.73
2022-11-07T17:07:36.208Z,15.48
2022-11-07T17:10:02.819Z,10.40
2022-11-07T17:12:29.278Z,11.65
2022-11-07T17:14:55.819Z,12.35
2022-11-07T17:17:22.913Z,9.15
2022-11-07T17:19:49.374Z,13.35
2022-11-07T17:22:16.298Z,9.85
2022-11-07T17:24:43.141Z,10.93
2022-11-07T17:27:20.579Z,10.95
2022-11-07T17:29:47.109Z,6.03
2022-11-07T17:32:13.646Z,11.38
2022-11-07T17:34:40.166Z,11.10
2022-11-07T17:37:06.742Z,13.60
2022-11-07T17:39:33.198Z,13.45
2022-11-07T17:41:59.689Z,6.47
2022-11-07T17:44:26.166Z,9.57
2022-11-07T17:46:52.754Z,12.45
2022-11-07T17:49:19.645Z,5.57
2022-11-07T17:51:46.237Z,8.45
2022-11-07T17:54:13.279Z,8.70
2022-11-07T17:56:40.469Z,11.43
2022-11-07T17:59:08.682Z,9.75
2022-11-07T18:01:36.823Z,13.63
2022-11-07T18:04:04.266Z,14.98
2022-11-07T18:06:33.524Z,10.27
2022-11-07T18:09:00.775Z,12.20
2022-11-07T18:11:29.384Z,17.98
2022-11-07T18:13:56.810Z,13.70
2022-11-07T18:16:24.730Z,20.77
2022-11-07T18:18:51.301Z,14.75
2022-11-07T18:21:17.897Z,14.75
2022-11-07T18:23:44.955Z,14.38
2022-11-07T18:26:25.068Z,18.08
2022-11-07T18:28:53.562Z,15.75
2022-11-07T18:31:21.771Z,14.35
2022-11-07T18:33:48.431Z,18.05
2022-11-07T18:36:17.163Z,13.82
2022-11-07T18:38:44.799Z,18.75
2022-11-07T18:41:12.725Z,15.68
2022-11-07T18:43:39.484Z,18.63
2022-11-07T18:46:08.829Z,15.73
2022-11-07T18:48:36.120Z,20.85
2022-11-07T18:51:02.863Z,21.83
2022-11-07T18:53:29.692Z,30.75
2022-11-07T18:56:00.072Z,24.35
2022-11-07T18:58:30.167Z,26.23
2022-11-07T19:01:01.661Z,25.13
2022-11-07T19:03:28.277Z,25.80
2022-11-07T19:06:00.798Z,26.25
2022-11-07T19:08:29.758Z,83.60
2022-11-07T19:10:56.821Z,26.45
2022-11-07T19:13:24.101Z,27.48
2022-11-07T19:15:50.760Z,32.42
2022-11-07T19:18:17.983Z,21.50
2022-11-07T19:20:44.583Z,22.30
2022-11-07T19:23:14.120Z,27.45
2022-11-07T19:25:41.137Z,25.77
2022-11-07T19:28:08.023Z,15.73
2022-11-07T19:30:35.168Z,21.88
2022-11-07T19:33:02.344Z,23.80
2022-11-07T19:35:32.306Z,15.32
2022-11-07T19:37:58.820Z,26.30
2022-11-07T19:40:25.456Z,19.83
2022-11-07T19:42:52.357Z,18.38
2022-11-07T19:45:19.250Z,31.90
2022-11-07T19:47:46.181Z,21.45
2022-11-07T19:50:12.682Z,17.25
2022-11-07T19:52:39.265Z,17.73
2022-11-07T19:55:05.855Z,20.13
2022-11-07T19:57:32.396Z,18.92
2022-11-07T19:59:58.939Z,22.20
2022-11-07T20:02:32.850Z,12.85
2022-11-07T20:05:00.518Z,26.25
2022-11-07T20:07:27.000Z,24.90
2022-11-07T20:09:54.981Z,16.48
2022-11-07T20:12:21.494Z,23.58
2022-11-07T20:14:49.672Z,25.88
2022-11-07T20:17:16.261Z,19.02
2022-11-07T20:19:42.727Z,25.73
2022-11-07T20:22:12.174Z,32.05
2022-11-07T20:24:38.651Z,25.75
2022-11-07T20:27:05.274Z,24.42
2022-11-07T20:29:31.862Z,20.15
2022-11-07T20:31:58.372Z,20.65
2022-11-07T20:34:24.862Z,20.33
2022-11-07T20:36:53.936Z,20.60
2022-11-07T20:39:20.387Z,22.40
2022-11-07T20:41:47.398Z,24.25
2022-11-07T20:44:14.737Z,19.10
2022-11-07T20:46:42.497Z,23.98
2022-11-07T20:49:11.259Z,16.48
2022-11-07T20:51:37.803Z,23.65
2022-11-07T20:54:04.300Z,28.95
2022-11-07T20:56:30.862Z,25.83
2022-11-07T20:59:00.566Z,48.47
2022-11-07T21:01:29.765Z,21.05
2022-11-07T21:03:56.436Z,20.90
2022-11-07T21:06:23.046Z,32.45
2022-11-07T21:08:50.391Z,21.25
2022-11-07T21:11:16.883Z,30.02
2022-11-07T21:13:51.187Z,22.35
2022-11-07T21:16:19.277Z,19.02
2022-11-07T21:18:45.836Z,17.00
2022-11-07T21:21:15.332Z,24.98
2022-11-07T21:23:42.358Z,27.50
2022-11-07T21:26:09.697Z,15.63
2022-11-07T21:28:40.570Z,18.45
2022-11-07T21:31:11.696Z,22.58
2022-11-07T21:33:38.987Z,25.90
2022-11-07T21:36:12.503Z,23.25
2022-11-07T21:38:39.322Z,20.30
2022-11-07T21:41:06.698Z,21.55
2022-11-07T21:43:33.215Z,22.30
2022-11-07T21:46:26.192Z,23.23
2022-11-07T21:48:52.985Z,24.42
2022-11-07T21:51:20.706Z,13.63
2022-11-07T21:53:47.787Z,25.35
2022-11-07T21:56:17.426Z,20.20
2022-11-07T21:58:43.998Z,22.23
2022-11-07T22:01:10.900Z,26.90
2022-11-07T22:04:04.849Z,22.70
2022-11-07T22:06:24.037Z,22.05
2022-11-07T22:08:51.803Z,26.15
2022-11-07T22:11:18.654Z,19.80
2022-11-07T22:13:45.139Z,24.80
2022-11-07T22:16:12.858Z,24.52
2022-11-07T22:18:39.396Z,19.50
2022-11-07T22:21:06.590Z,23.92
2022-11-07T22:23:33.964Z,21.13
2022-11-07T22:26:17.478Z,27.33
2022-11-07T22:28:46.040Z,29.67
2022-11-07T22:31:14.368Z,24.55
2022-11-07T22:33:40.961Z,21.40
2022-11-07T22:36:08.593Z,32.78
2022-11-07T22:38:35.556Z,33.72
2022-11-07T22:41:02.650Z,24.65
2022-11-07T22:43:32.079Z,21.88
2022-11-07T22:46:02.900Z,20.02
2022-11-07T22:48:29.720Z,20.25
2022-11-07T22:51:03.758Z,27.55
2022-11-07T22:53:30.397Z,29.30
2022-11-07T22:55:56.914Z,25.30
2022-11-07T22:58:23.446Z,19.40
2022-11-07T23:00:49.899Z,26.75
2022-11-07T23:03:16.515Z,26.50
2022-11-07T23:05:43.108Z,23.48
2022-11-07T23:08:09.602Z,28.42
2022-11-07T23:10:36.136Z,25.05
2022-11-07T23:13:04.783Z,22.13
2022-11-07T23:15:31.932Z,23.58
2022-11-07T23:17:58.534Z,28.88
2022-11-07T23:20:43.410Z,23.48
2022-11-07T23:23:09.922Z,21.48
2022-11-07T23:25:36.945Z,25.45
2022-11-07T23:28:04.418Z,26.08
2022-11-07T23:30:30.999Z,22.33
2022-11-07T23:32:57.468Z,35.30
2022-11-07T23:35:23.950Z,29.90
2022-11-07T23:37:50.439Z,19.27
2022-11-07T23:40:16.935Z,24.33
2022-11-07T23:42:43.491Z,19.67
2022-11-07T23:45:28.599Z,26.35
2022-11-07T23:48:17.606Z,23.45
2022-11-07T23:51:02.606Z,23.55
2022-11-07T23:53:54.268Z,26.38
2022-11-07T23:56:21.917Z,26.48
2022-11-07T23:59:07.474Z,27.90
